createdAt,value
2018-06-10T00:01:47.925Z,40.80
2018-06-10T00:06:51.110Z,40.90
2018-06-10T00:11:54.264Z,40.90
2018-06-10T00:16:57.435Z,40.90
2018-06-10T00:22:00.703Z,40.90
2018-06-10T00:27:03.965Z,40.90
2018-06-10T00:32:07.304Z,41.00
2018-06-10T00:37:10.690Z,40.90
2018-06-10T00:42:13.879Z,41.00
2018-06-10T00:47:17.168Z,41.00
2018-06-10T00:52:20.374Z,41.00
2018-06-10T00:57:24.461Z,41.00
2018-06-10T01:02:27.640Z,41.00
2018-06-10T01:07:31.086Z,41.00
2018-06-10T01:12:34.336Z,41.00
2018-06-10T01:17:37.887Z,41.10
2018-06-10T01:22:41.148Z,41.10
2018-06-10T01:27:44.382Z,41.10
2018-06-10T01:32:47.632Z,41.10
2018-06-10T01:37:50.846Z,41.70
2018-06-10T01:42:54.206Z,41.10
2018-06-10T01:47:57.352Z,41.10
2018-06-10T01:53:04.634Z,41.10
2018-06-10T01:58:07.815Z,41.20
2018-06-10T02:03:10.969Z,41.20
2018-06-10T02:08:14.170Z,41.20
2018-06-10T02:13:17.356Z,41.20
2018-06-10T02:18:20.591Z,41.20
2018-06-10T02:23:23.841Z,41.20
2018-06-10T02:28:26.986Z,41.20
2018-06-10T02:33:30.406Z,41.30
2018-06-10T02:38:33.746Z,41.30
2018-06-10T02:43:37.071Z,41.20
2018-06-10T02:48:40.280Z,41.30
2018-06-10T02:53:43.500Z,41.30
2018-06-10T02:58:46.698Z,41.90
2018-06-10T03:03:49.925Z,41.90
2018-06-10T03:08:53.111Z,41.30
2018-06-10T03:13:56.321Z,41.30
2018-06-10T03:18:59.495Z,41.30
2018-06-10T03:24:02.766Z,41.30
2018-06-10T03:29:06.019Z,41.40
2018-06-10T03:34:09.255Z,41.30
2018-06-10T03:39:12.467Z,41.30
2018-06-10T03:44:15.823Z,41.30
2018-06-10T03:49:19.202Z,41.30
2018-06-10T03:54:22.396Z,41.30
2018-06-10T03:59:25.674Z,41.30
2018-06-10T04:04:28.920Z,41.30
2018-06-10T04:09:32.514Z,41.30
2018-06-10T04:14:36.074Z,41.30
2018-06-10T04:19:39.490Z,41.40
2018-06-10T04:24:42.905Z,41.40
2018-06-10T04:29:46.081Z,41.90
2018-06-10T04:34:49.328Z,41.30
2018-06-10T04:39:52.536Z,41.40
2018-06-10T04:44:56.639Z,41.30
2018-06-10T04:49:59.922Z,41.30
2018-06-10T04:55:03.132Z,41.10
2018-06-10T05:00:06.654Z,41.20
2018-06-10T05:05:13.874Z,41.00
2018-06-10T05:10:17.310Z,41.00
2018-06-10T05:15:20.488Z,41.00
2018-06-10T05:20:24.637Z,40.90
2018-06-10T05:25:28.265Z,40.80
2018-06-10T05:30:31.516Z,40.80
2018-06-10T05:35:34.789Z,40.70
2018-06-10T05:40:38.009Z,40.70
2018-06-10T05:45:41.261Z,40.80
2018-06-10T05:50:44.433Z,41.10
2018-06-10T05:55:47.737Z,41.60
2018-06-10T06:00:50.967Z,41.00
2018-06-10T06:10:57.261Z,41.00
2018-06-10T06:16:00.557Z,40.90
2018-06-10T06:21:03.845Z,40.80
2018-06-10T06:26:07.019Z,40.60
2018-06-10T06:31:10.437Z,40.50
2018-06-10T06:36:13.765Z,40.50
2018-06-10T06:41:17.050Z,40.40
2018-06-10T06:46:20.511Z,40.30
2018-06-10T06:51:23.815Z,40.30
2018-06-10T06:56:27.028Z,40.20
2018-06-10T07:01:30.294Z,40.20
2018-06-10T07:06:33.455Z,40.10
2018-06-10T07:11:37.081Z,40.10
2018-06-10T07:16:40.565Z,40.10
2018-06-10T07:21:43.780Z,40.00
2018-06-10T07:26:46.974Z,40.00
2018-06-10T07:31:50.206Z,40.00
2018-06-10T07:36:53.421Z,40.00
2018-06-10T07:41:56.704Z,40.10
2018-06-10T07:46:59.949Z,39.90
2018-06-10T07:52:03.595Z,40.10
2018-06-10T07:57:06.829Z,40.20
2018-06-10T08:02:10.060Z,40.20
2018-06-10T08:07:13.302Z,40.40
2018-06-10T08:12:16.690Z,40.50
2018-06-10T08:17:19.986Z,40.40
2018-06-10T08:22:23.956Z,40.30
2018-06-10T08:27:27.168Z,40.30
2018-06-10T08:32:30.690Z,40.30
2018-06-10T08:37:33.901Z,40.90
2018-06-10T08:42:37.124Z,40.30
2018-06-10T08:47:40.459Z,40.90
2018-06-10T08:52:43.708Z,40.30
2018-06-10T08:57:47.008Z,40.30
2018-06-10T09:02:50.244Z,40.30
2018-06-10T09:07:53.453Z,40.40
2018-06-10T09:12:56.621Z,40.50
2018-06-10T09:17:59.870Z,40.50
2018-06-10T09:23:03.142Z,40.50
2018-06-10T09:28:06.512Z,40.50
2018-06-10T09:33:09.754Z,40.50
2018-06-10T09:38:13.417Z,40.60
2018-06-10T09:43:16.852Z,40.60
2018-06-10T09:48:20.141Z,40.60
2018-06-10T09:53:23.389Z,40.60
2018-06-10T09:58:26.577Z,41.20
2018-06-10T10:03:29.984Z,40.60
2018-06-10T10:08:33.214Z,40.70
2018-06-10T10:13:36.462Z,40.70
2018-06-10T10:18:40.009Z,40.80
2018-06-10T10:23:43.286Z,40.80
2018-06-10T10:28:46.807Z,40.80
2018-06-10T10:33:50.018Z,40.80
2018-06-10T10:38:53.255Z,40.80
2018-06-10T10:43:56.465Z,40.90
2018-06-10T10:48:59.772Z,40.90
2018-06-10T10:54:03.024Z,40.90
2018-06-10T10:59:06.402Z,40.90
2018-06-10T11:04:10.538Z,40.90
2018-06-10T11:09:13.784Z,40.90
2018-06-10T11:14:17.138Z,40.90
2018-06-10T11:19:20.414Z,40.90
2018-06-10T11:24:23.679Z,41.00
2018-06-10T11:29:26.927Z,41.00
2018-06-10T11:39:33.619Z,41.10
2018-06-10T11:44:36.865Z,41.10
2018-06-10T11:49:42.159Z,41.00
2018-06-10T11:54:45.510Z,41.10
2018-06-10T11:59:48.709Z,41.00
2018-06-10T12:04:51.969Z,41.00
2018-06-10T12:09:55.219Z,41.10
2018-06-10T12:14:58.580Z,41.10
2018-06-10T12:20:02.044Z,41.20
2018-06-10T12:25:05.590Z,41.20
2018-06-10T12:30:09.325Z,41.30
2018-06-10T12:35:12.619Z,41.30
2018-06-10T12:40:15.851Z,41.30
2018-06-10T12:45:19.680Z,41.20
2018-06-10T12:50:22.902Z,41.30
2018-06-10T12:55:26.210Z,41.40
2018-06-10T13:00:29.405Z,41.30
2018-06-10T13:05:33.181Z,41.30
2018-06-10T13:10:36.641Z,41.40
2018-06-10T13:15:39.987Z,41.30
2018-06-10T13:20:43.310Z,41.40
2018-06-10T13:25:46.629Z,41.40
2018-06-10T13:30:49.963Z,41.40
2018-06-10T13:35:53.472Z,41.40
2018-06-10T13:40:56.710Z,41.40
2018-06-10T13:46:00.031Z,41.50
2018-06-10T13:51:03.316Z,41.50
2018-06-10T13:56:07.281Z,41.50
2018-06-10T14:01:10.696Z,41.50
2018-06-10T14:06:14.069Z,41.60
2018-06-10T14:11:18.067Z,41.60
2018-06-10T14:16:21.738Z,41.70
2018-06-10T14:21:25.195Z,41.70
2018-06-10T14:26:29.014Z,41.70
2018-06-10T14:31:32.316Z,41.80
2018-06-10T14:36:35.613Z,41.70
2018-06-10T14:41:38.952Z,41.80
2018-06-10T14:46:42.170Z,41.80
2018-06-10T14:51:45.596Z,41.90
2018-06-10T14:56:48.846Z,41.80
2018-06-10T15:01:52.078Z,41.90
2018-06-10T15:06:55.318Z,42.00
2018-06-10T15:11:58.619Z,42.10
2018-06-10T15:17:01.817Z,42.10
2018-06-10T15:22:05.043Z,42.10
2018-06-10T15:27:08.397Z,42.10
2018-06-10T15:32:11.796Z,42.20
2018-06-10T15:37:15.064Z,42.20
2018-06-10T15:42:18.402Z,42.20
2018-06-10T15:47:21.650Z,42.30
2018-06-10T15:52:25.901Z,42.20
2018-06-10T15:57:29.256Z,42.30
2018-06-10T16:02:32.538Z,42.30
2018-06-10T16:07:35.818Z,42.30
2018-06-10T16:12:39.068Z,42.40
2018-06-10T16:17:42.305Z,42.40
2018-06-10T16:22:46.959Z,42.40
2018-06-10T16:27:50.553Z,42.50
2018-06-10T16:32:54.095Z,42.50
2018-06-10T16:37:57.367Z,42.50
2018-06-10T16:43:00.606Z,42.50
2018-06-10T16:48:04.506Z,42.60
2018-06-10T16:53:07.717Z,42.50
2018-06-10T16:58:11.168Z,42.60
2018-06-10T17:03:15.269Z,42.50
2018-06-10T17:08:19.023Z,42.60
2018-06-10T17:13:22.309Z,42.50
2018-06-10T17:18:25.651Z,42.60
2018-06-10T17:23:28.999Z,42.60
2018-06-10T17:28:32.412Z,42.70
2018-06-10T17:33:35.641Z,42.70
2018-06-10T17:38:38.905Z,42.70
2018-06-10T17:43:42.220Z,42.70
2018-06-10T17:48:45.991Z,43.50
2018-06-10T17:53:49.276Z,42.80
2018-06-10T17:58:52.482Z,42.80
2018-06-10T18:03:56.256Z,42.90
2018-06-10T18:08:59.579Z,42.80
2018-06-10T18:14:02.841Z,42.90
2018-06-10T18:19:06.387Z,42.90
2018-06-10T18:24:09.799Z,43.00
2018-06-10T18:29:13.129Z,43.00
2018-06-10T18:39:19.782Z,43.00
2018-06-10T18:44:23.087Z,43.10
2018-06-10T18:49:26.493Z,43.10
2018-06-10T18:54:29.776Z,43.10
2018-06-10T18:59:33.042Z,43.10
2018-06-10T19:04:36.963Z,43.10
2018-06-10T19:09:40.236Z,43.10
2018-06-10T19:14:43.739Z,43.10
2018-06-10T19:19:47.007Z,43.20
2018-06-10T19:24:50.449Z,43.30
2018-06-10T19:29:53.731Z,43.20
2018-06-10T19:34:57.017Z,43.30
2018-06-10T19:40:00.380Z,43.30
2018-06-10T19:45:03.993Z,43.30
2018-06-10T19:50:07.429Z,43.30
2018-06-10T19:55:10.835Z,43.30
2018-06-10T20:00:14.180Z,43.40
2018-06-10T20:05:17.516Z,43.40
2018-06-10T20:10:20.994Z,43.30
2018-06-10T20:15:24.273Z,43.30
2018-06-10T20:20:27.873Z,43.40
2018-06-10T20:25:31.312Z,43.40
2018-06-10T20:30:34.592Z,43.40
2018-06-10T20:35:37.997Z,43.40
2018-06-10T20:40:41.270Z,43.40
2018-06-10T20:45:44.855Z,43.30
2018-06-10T20:50:48.283Z,43.50
2018-06-10T20:55:51.966Z,43.50
2018-06-10T21:00:55.495Z,43.50
2018-06-10T21:05:58.820Z,43.50
2018-06-10T21:11:02.112Z,43.50
2018-06-10T21:16:05.474Z,43.50
2018-06-10T21:21:09.140Z,43.50
2018-06-10T21:26:12.391Z,43.50
2018-06-10T21:31:15.646Z,43.50
2018-06-10T21:36:19.265Z,43.50
2018-06-10T21:41:22.513Z,43.50
2018-06-10T21:46:25.911Z,43.60
2018-06-10T21:51:29.097Z,43.50
2018-06-10T21:56:32.300Z,43.60
2018-06-10T22:01:35.624Z,43.60
2018-06-10T22:06:39.674Z,43.60
2018-06-10T22:11:44.189Z,43.70
2018-06-10T22:16:47.489Z,43.60
2018-06-10T22:21:50.775Z,43.60
2018-06-10T22:26:53.983Z,43.60
2018-06-10T22:31:57.287Z,43.60
2018-06-10T22:37:00.503Z,43.50
2018-06-10T22:42:03.686Z,43.60
2018-06-10T22:47:06.942Z,43.50
2018-06-10T22:52:10.324Z,43.60
2018-06-10T22:57:13.554Z,43.60
2018-06-10T23:02:17.005Z,44.30
2018-06-10T23:07:20.213Z,43.60
2018-06-10T23:12:23.476Z,43.60
2018-06-10T23:17:26.802Z,43.60
2018-06-10T23:22:30.178Z,43.60
2018-06-10T23:27:33.365Z,43.60
2018-06-10T23:32:36.908Z,43.60
2018-06-10T23:42:43.695Z,43.70
2018-06-10T23:47:46.963Z,43.60
2018-06-10T23:52:50.248Z,43.60
2018-06-10T23:57:53.454Z,43.60
